< < Back
Terminal Aerodrome Forecast


Current Version              Previous Versions:   1  2  3  4  5  6  7  8  9  

Terminal Aerodrome Forecast

023
FTUS42 KGSP 241100
TAFGSP
TAF
KGSP 241120Z 2412/2512 03005KT P6SM FEW250
     FM241800 13005KT P6SM SCT250
     FM250500 13003KT P6SM BKN060
     FM250700 14003KT P6SM BKN029
     FM250900 16003KT P6SM BKN014=

Latest METAR

405
SAUS70 KWBC 241100 RRE
MTRGSP
METAR KGSP 241053Z 01004KT 10SM CLR 08/01 A3007 RMK AO2 SLP177
T00830006


USA.gov is the U.S. government's official web portal to all federal, state and local government web resources and services.